Cape Canaveral, Florida
Current Conditions -  °F | °C
As of 8:58 PM on Wednesday 26 Nov 2014 (Local Time) from KXMR Reporting Station
Clear Clear  
Wind Chill: 51°   Ceiling: Unl
Heat Index: 51°   Visibility: 10mi
Dew Point: 49°   Wind: 1mph
Humidity: 92%   Direction: 300°WNW
Pressure: 30.18"   Gusts: NA
Location:  28.38°N, 80.6°W
Report Text: KXMR 270158Z AUTO 30001KT 10SM CLR 11/09 A3018 RMK AO2 SLP223 T01060094
Loading
Personal Weather Stations






























Interactive Weather Map New forecast layout! Learn more

10-Day Weather Forecast

Advertisements
Track Severe Weather on mobile